sensor_id;sensor_type;location;lat;lon;timestamp;P1;durP1;ratioP1;P2;durP2;ratioP2
28180;SDS011;15464;50.988;10.318;2023-02-28T00:00:36;9.63;;;5.97;;
28180;SDS011;15464;50.988;10.318;2023-02-28T00:03:04;7.50;;;5.10;;
28180;SDS011;15464;50.988;10.318;2023-02-28T00:05:31;6.63;;;4.72;;
28180;SDS011;15464;50.988;10.318;2023-02-28T00:07:58;7.03;;;5.30;;
28180;SDS011;15464;50.988;10.318;2023-02-28T00:10:26;6.07;;;4.82;;
28180;SDS011;15464;50.988;10.318;2023-02-28T00:12:55;7.65;;;4.40;;
28180;SDS011;15464;50.988;10.318;2023-02-28T00:15:26;4.75;;;4.10;;
28180;SDS011;15464;50.988;10.318;2023-02-28T00:17:52;5.82;;;4.05;;
28180;SDS011;15464;50.988;10.318;2023-02-28T00:20:19;7.53;;;4.50;;
28180;SDS011;15464;50.988;10.318;2023-02-28T00:22:47;4.82;;;3.90;;
28180;SDS011;15464;50.988;10.318;2023-02-28T00:25:17;5.43;;;4.53;;
28180;SDS011;15464;50.988;10.318;2023-02-28T00:27:46;5.63;;;4.25;;
28180;SDS011;15464;50.988;10.318;2023-02-28T00:30:14;5.28;;;4.13;;
28180;SDS011;15464;50.988;10.318;2023-02-28T00:32:43;6.57;;;4.18;;
28180;SDS011;15464;50.988;10.318;2023-02-28T00:35:10;4.18;;;3.72;;
28180;SDS011;15464;50.988;10.318;2023-02-28T00:37:38;5.88;;;3.92;;
28180;SDS011;15464;50.988;10.318;2023-02-28T00:40:05;5.45;;;3.90;;
28180;SDS011;15464;50.988;10.318;2023-02-28T00:42:33;4.63;;;3.60;;
28180;SDS011;15464;50.988;10.318;2023-02-28T00:45:01;6.37;;;3.97;;
28180;SDS011;15464;50.988;10.318;2023-02-28T00:47:30;6.45;;;4.20;;
28180;SDS011;15464;50.988;10.318;2023-02-28T00:49:57;7.72;;;4.18;;
28180;SDS011;15464;50.988;10.318;2023-02-28T00:52:24;4.53;;;3.92;;
28180;SDS011;15464;50.988;10.318;2023-02-28T00:54:51;5.63;;;3.80;;
28180;SDS011;15464;50.988;10.318;2023-02-28T00:57:18;5.80;;;3.70;;
28180;SDS011;15464;50.988;10.318;2023-02-28T00:59:44;6.25;;;4.65;;
28180;SDS011;15464;50.988;10.318;2023-02-28T01:02:11;7.68;;;3.80;;
28180;SDS011;15464;50.988;10.318;2023-02-28T01:04:38;4.97;;;3.63;;
28180;SDS011;15464;50.988;10.318;2023-02-28T01:07:05;5.88;;;3.92;;
28180;SDS011;15464;50.988;10.318;2023-02-28T01:09:31;4.28;;;3.47;;
28180;SDS011;15464;50.988;10.318;2023-02-28T01:11:58;6.70;;;3.70;;
28180;SDS011;15464;50.988;10.318;2023-02-28T01:14:25;5.55;;;3.95;;
28180;SDS011;15464;50.988;10.318;2023-02-28T01:16:52;5.15;;;4.40;;
28180;SDS011;15464;50.988;10.318;2023-02-28T01:19:18;4.80;;;3.95;;
28180;SDS011;15464;50.988;10.318;2023-02-28T01:21:45;6.47;;;4.13;;
28180;SDS011;15464;50.988;10.318;2023-02-28T01:24:13;7.97;;;4.20;;
28180;SDS011;15464;50.988;10.318;2023-02-28T01:26:40;5.43;;;4.00;;
28180;SDS011;15464;50.988;10.318;2023-02-28T01:29:06;7.90;;;4.30;;
28180;SDS011;15464;50.988;10.318;2023-02-28T01:31:33;5.90;;;3.95;;
28180;SDS011;15464;50.988;10.318;2023-02-28T01:34:00;8.38;;;4.25;;
28180;SDS011;15464;50.988;10.318;2023-02-28T01:36:29;6.78;;;4.63;;
28180;SDS011;15464;50.988;10.318;2023-02-28T01:38:56;7.43;;;4.25;;
28180;SDS011;15464;50.988;10.318;2023-02-28T01:41:27;5.63;;;4.38;;
28180;SDS011;15464;50.988;10.318;2023-02-28T01:46:30;6.85;;;4.90;;
28180;SDS011;15464;50.988;10.318;2023-02-28T01:51:26;8.18;;;4.35;;
28180;SDS011;15464;50.988;10.318;2023-02-28T01:53:56;7.22;;;4.75;;
28180;SDS011;15464;50.988;10.318;2023-02-28T01:56:29;5.63;;;4.57;;
28180;SDS011;15464;50.988;10.318;2023-02-28T01:58:59;5.57;;;4.75;;
28180;SDS011;15464;50.988;10.318;2023-02-28T02:01:26;5.63;;;4.82;;
28180;SDS011;15464;50.988;10.318;2023-02-28T02:03:55;6.13;;;4.85;;
28180;SDS011;15464;50.988;10.318;2023-02-28T02:06:26;9.52;;;4.80;;
28180;SDS011;15464;50.988;10.318;2023-02-28T02:08:56;6.18;;;5.15;;
28180;SDS011;15464;50.988;10.318;2023-02-28T02:11:23;8.30;;;5.15;;
28180;SDS011;15464;50.988;10.318;2023-02-28T02:30:31;6.90;;;5.03;;
28180;SDS011;15464;50.988;10.318;2023-02-28T02:38:53;6.15;;;4.55;;
28180;SDS011;15464;50.988;10.318;2023-02-28T02:44:18;8.55;;;4.38;;
28180;SDS011;15464;50.988;10.318;2023-02-28T02:46:51;6.45;;;4.63;;
28180;SDS011;15464;50.988;10.318;2023-02-28T02:49:26;8.40;;;5.68;;
28180;SDS011;15464;50.988;10.318;2023-02-28T02:51:57;6.80;;;4.55;;
28180;SDS011;15464;50.988;10.318;2023-02-28T02:54:33;4.93;;;3.85;;
28180;SDS011;15464;50.988;10.318;2023-02-28T02:57:05;5.80;;;4.10;;
28180;SDS011;15464;50.988;10.318;2023-02-28T02:59:36;6.72;;;5.38;;
28180;SDS011;15464;50.988;10.318;2023-02-28T03:02:07;6.50;;;4.80;;
28180;SDS011;15464;50.988;10.318;2023-02-28T03:04:45;7.28;;;5.10;;
28180;SDS011;15464;50.988;10.318;2023-02-28T03:07:17;5.50;;;4.38;;
28180;SDS011;15464;50.988;10.318;2023-02-28T03:09:54;5.10;;;4.35;;
28180;SDS011;15464;50.988;10.318;2023-02-28T03:12:23;6.90;;;3.95;;
28180;SDS011;15464;50.988;10.318;2023-02-28T03:17:55;5.65;;;4.28;;
28180;SDS011;15464;50.988;10.318;2023-02-28T03:23:10;14.07;;;6.90;;
28180;SDS011;15464;50.988;10.318;2023-02-28T03:28:41;8.60;;;5.20;;
28180;SDS011;15464;50.988;10.318;2023-02-28T03:31:50;13.60;;;6.97;;
28180;SDS011;15464;50.988;10.318;2023-02-28T03:34:33;9.30;;;5.40;;
28180;SDS011;15464;50.988;10.318;2023-02-28T03:37:11;9.40;;;4.63;;
28180;SDS011;15464;50.988;10.318;2023-02-28T03:39:53;6.05;;;4.75;;
28180;SDS011;15464;50.988;10.318;2023-02-28T03:42:25;5.95;;;4.20;;
28180;SDS011;15464;50.988;10.318;2023-02-28T03:44:57;5.22;;;4.40;;
28180;SDS011;15464;50.988;10.318;2023-02-28T03:47:34;8.32;;;4.47;;
28180;SDS011;15464;50.988;10.318;2023-02-28T03:52:46;11.18;;;5.50;;
28180;SDS011;15464;50.988;10.318;2023-02-28T03:55:17;9.98;;;5.68;;
28180;SDS011;15464;50.988;10.318;2023-02-28T04:01:20;7.53;;;4.68;;
28180;SDS011;15464;50.988;10.318;2023-02-28T04:03:37;9.77;;;6.03;;
28180;SDS011;15464;50.988;10.318;2023-02-28T04:06:06;9.98;;;5.65;;
28180;SDS011;15464;50.988;10.318;2023-02-28T04:08:38;5.32;;;3.75;;
28180;SDS011;15464;50.988;10.318;2023-02-28T04:14:03;4.00;;;2.90;;
28180;SDS011;15464;50.988;10.318;2023-02-28T04:16:31;4.70;;;3.00;;
28180;SDS011;15464;50.988;10.318;2023-02-28T04:19:04;5.00;;;3.10;;
28180;SDS011;15464;50.988;10.318;2023-02-28T04:21:35;4.68;;;2.80;;
28180;SDS011;15464;50.988;10.318;2023-02-28T04:24:05;4.65;;;2.90;;
28180;SDS011;15464;50.988;10.318;2023-02-28T04:26:34;3.53;;;2.50;;
28180;SDS011;15464;50.988;10.318;2023-02-28T04:29:03;4.93;;;3.05;;
28180;SDS011;15464;50.988;10.318;2023-02-28T04:31:31;4.60;;;2.80;;
28180;SDS011;15464;50.988;10.318;2023-02-28T04:33:59;4.72;;;2.60;;
28180;SDS011;15464;50.988;10.318;2023-02-28T04:36:26;3.42;;;2.40;;
28180;SDS011;15464;50.988;10.318;2023-02-28T04:38:53;4.50;;;2.60;;
28180;SDS011;15464;50.988;10.318;2023-02-28T04:41:21;5.00;;;3.03;;
28180;SDS011;15464;50.988;10.318;2023-02-28T04:43:49;3.55;;;2.50;;
28180;SDS011;15464;50.988;10.318;2023-02-28T04:46:17;4.03;;;2.50;;
28180;SDS011;15464;50.988;10.318;2023-02-28T04:48:45;3.85;;;3.17;;
28180;SDS011;15464;50.988;10.318;2023-02-28T04:51:12;4.70;;;3.08;;
28180;SDS011;15464;50.988;10.318;2023-02-28T04:56:10;3.47;;;2.90;;
28180;SDS011;15464;50.988;10.318;2023-02-28T04:58:38;4.90;;;2.95;;
28180;SDS011;15464;50.988;10.318;2023-02-28T05:01:07;3.50;;;2.80;;
28180;SDS011;15464;50.988;10.318;2023-02-28T05:03:43;3.35;;;2.38;;
28180;SDS011;15464;50.988;10.318;2023-02-28T05:06:10;3.60;;;2.60;;
28180;SDS011;15464;50.988;10.318;2023-02-28T05:08:38;4.50;;;2.70;;
28180;SDS011;15464;50.988;10.318;2023-02-28T05:11:06;4.45;;;2.90;;
28180;SDS011;15464;50.988;10.318;2023-02-28T05:13:38;4.30;;;2.65;;
28180;SDS011;15464;50.988;10.318;2023-02-28T05:16:05;4.68;;;3.25;;
28180;SDS011;15464;50.988;10.318;2023-02-28T05:18:32;4.63;;;2.72;;
28180;SDS011;15464;50.988;10.318;2023-02-28T05:20:59;3.50;;;2.85;;
28180;SDS011;15464;50.988;10.318;2023-02-28T05:23:28;4.32;;;2.85;;
28180;SDS011;15464;50.988;10.318;2023-02-28T05:25:55;3.80;;;2.83;;
28180;SDS011;15464;50.988;10.318;2023-02-28T05:28:22;3.47;;;2.55;;
28180;SDS011;15464;50.988;10.318;2023-02-28T05:30:49;4.85;;;3.00;;
28180;SDS011;15464;50.988;10.318;2023-02-28T05:33:16;4.93;;;2.85;;
28180;SDS011;15464;50.988;10.318;2023-02-28T05:35:43;4.30;;;3.00;;
28180;SDS011;15464;50.988;10.318;2023-02-28T05:38:10;4.53;;;3.10;;
28180;SDS011;15464;50.988;10.318;2023-02-28T05:40:38;5.32;;;3.15;;
28180;SDS011;15464;50.988;10.318;2023-02-28T05:43:05;4.00;;;2.67;;
28180;SDS011;15464;50.988;10.318;2023-02-28T05:48:01;3.97;;;2.75;;
28180;SDS011;15464;50.988;10.318;2023-02-28T05:50:28;3.53;;;2.60;;
28180;SDS011;15464;50.988;10.318;2023-02-28T05:52:55;4.65;;;3.30;;
28180;SDS011;15464;50.988;10.318;2023-02-28T05:55:21;7.05;;;3.33;;
28180;SDS011;15464;50.988;10.318;2023-02-28T05:57:48;5.55;;;3.40;;
28180;SDS011;15464;50.988;10.318;2023-02-28T06:00:15;4.82;;;2.85;;
28180;SDS011;15464;50.988;10.318;2023-02-28T06:02:44;5.90;;;3.10;;
28180;SDS011;15464;50.988;10.318;2023-02-28T06:05:14;8.98;;;4.05;;
28180;SDS011;15464;50.988;10.318;2023-02-28T06:07:43;6.88;;;3.63;;
28180;SDS011;15464;50.988;10.318;2023-02-28T06:10:10;5.55;;;3.67;;
28180;SDS011;15464;50.988;10.318;2023-02-28T06:12:37;4.80;;;3.17;;
28180;SDS011;15464;50.988;10.318;2023-02-28T06:15:05;6.13;;;3.88;;
28180;SDS011;15464;50.988;10.318;2023-02-28T06:17:32;6.00;;;3.22;;
28180;SDS011;15464;50.988;10.318;2023-02-28T06:19:58;5.60;;;3.33;;
28180;SDS011;15464;50.988;10.318;2023-02-28T06:22:25;5.30;;;3.40;;
28180;SDS011;15464;50.988;10.318;2023-02-28T06:24:52;6.10;;;3.38;;
28180;SDS011;15464;50.988;10.318;2023-02-28T06:27:19;6.57;;;3.85;;
28180;SDS011;15464;50.988;10.318;2023-02-28T06:29:46;4.55;;;3.40;;
28180;SDS011;15464;50.988;10.318;2023-02-28T06:32:13;5.45;;;3.50;;
28180;SDS011;15464;50.988;10.318;2023-02-28T06:34:40;5.40;;;3.03;;
28180;SDS011;15464;50.988;10.318;2023-02-28T06:37:06;6.30;;;3.60;;
28180;SDS011;15464;50.988;10.318;2023-02-28T06:39:33;5.80;;;3.45;;
28180;SDS011;15464;50.988;10.318;2023-02-28T06:42:00;5.05;;;3.75;;
28180;SDS011;15464;50.988;10.318;2023-02-28T06:44:27;6.05;;;3.88;;
28180;SDS011;15464;50.988;10.318;2023-02-28T06:47:02;3.65;;;3.17;;
28180;SDS011;15464;50.988;10.318;2023-02-28T06:49:30;6.83;;;4.13;;
28180;SDS011;15464;50.988;10.318;2023-02-28T06:51:58;5.37;;;3.60;;
28180;SDS011;15464;50.988;10.318;2023-02-28T06:54:25;6.53;;;3.45;;
28180;SDS011;15464;50.988;10.318;2023-02-28T06:56:52;5.03;;;3.05;;
28180;SDS011;15464;50.988;10.318;2023-02-28T06:59:20;6.38;;;3.53;;
28180;SDS011;15464;50.988;10.318;2023-02-28T07:01:47;5.28;;;3.60;;
28180;SDS011;15464;50.988;10.318;2023-02-28T07:04:14;6.28;;;3.58;;
28180;SDS011;15464;50.988;10.318;2023-02-28T07:06:41;8.63;;;3.15;;
28180;SDS011;15464;50.988;10.318;2023-02-28T07:09:07;5.13;;;3.10;;
28180;SDS011;15464;50.988;10.318;2023-02-28T07:11:34;6.45;;;3.45;;
28180;SDS011;15464;50.988;10.318;2023-02-28T07:14:01;4.60;;;3.47;;
28180;SDS011;15464;50.988;10.318;2023-02-28T07:16:28;6.90;;;4.10;;
28180;SDS011;15464;50.988;10.318;2023-02-28T07:18:54;6.70;;;3.53;;
28180;SDS011;15464;50.988;10.318;2023-02-28T07:21:21;4.90;;;3.38;;
28180;SDS011;15464;50.988;10.318;2023-02-28T07:23:48;4.28;;;3.30;;
28180;SDS011;15464;50.988;10.318;2023-02-28T07:26:16;7.45;;;4.13;;
28180;SDS011;15464;50.988;10.318;2023-02-28T07:28:45;10.03;;;6.43;;
28180;SDS011;15464;50.988;10.318;2023-02-28T07:31:14;5.15;;;3.75;;
28180;SDS011;15464;50.988;10.318;2023-02-28T07:33:42;6.47;;;4.05;;
28180;SDS011;15464;50.988;10.318;2023-02-28T07:36:10;5.45;;;3.40;;
28180;SDS011;15464;50.988;10.318;2023-02-28T07:38:44;6.18;;;3.80;;
28180;SDS011;15464;50.988;10.318;2023-02-28T07:41:15;5.50;;;3.50;;
28180;SDS011;15464;50.988;10.318;2023-02-28T07:43:43;5.85;;;4.00;;
28180;SDS011;15464;50.988;10.318;2023-02-28T07:46:11;6.18;;;3.97;;
28180;SDS011;15464;50.988;10.318;2023-02-28T07:48:41;6.70;;;3.75;;
28180;SDS011;15464;50.988;10.318;2023-02-28T07:51:08;5.95;;;4.20;;
28180;SDS011;15464;50.988;10.318;2023-02-28T07:53:35;5.43;;;3.97;;
28180;SDS011;15464;50.988;10.318;2023-02-28T07:56:02;5.32;;;4.05;;
28180;SDS011;15464;50.988;10.318;2023-02-28T07:58:29;7.10;;;4.38;;
28180;SDS011;15464;50.988;10.318;2023-02-28T08:00:57;6.25;;;4.40;;
28180;SDS011;15464;50.988;10.318;2023-02-28T08:03:24;5.82;;;3.70;;
28180;SDS011;15464;50.988;10.318;2023-02-28T08:05:51;6.68;;;4.00;;
28180;SDS011;15464;50.988;10.318;2023-02-28T08:08:19;8.82;;;4.38;;
28180;SDS011;15464;50.988;10.318;2023-02-28T08:10:45;6.63;;;4.35;;
28180;SDS011;15464;50.988;10.318;2023-02-28T08:13:12;7.57;;;4.82;;
28180;SDS011;15464;50.988;10.318;2023-02-28T08:15:40;8.13;;;4.55;;
28180;SDS011;15464;50.988;10.318;2023-02-28T08:18:09;5.70;;;4.63;;
28180;SDS011;15464;50.988;10.318;2023-02-28T08:20:36;8.32;;;5.18;;
28180;SDS011;15464;50.988;10.318;2023-02-28T08:23:02;7.55;;;4.80;;
28180;SDS011;15464;50.988;10.318;2023-02-28T08:25:29;8.00;;;5.35;;
28180;SDS011;15464;50.988;10.318;2023-02-28T08:27:56;5.97;;;4.90;;
28180;SDS011;15464;50.988;10.318;2023-02-28T08:30:22;7.40;;;4.90;;
28180;SDS011;15464;50.988;10.318;2023-02-28T08:32:49;7.15;;;4.88;;
28180;SDS011;15464;50.988;10.318;2023-02-28T08:35:16;7.65;;;4.80;;
28180;SDS011;15464;50.988;10.318;2023-02-28T08:37:42;5.90;;;4.72;;
28180;SDS011;15464;50.988;10.318;2023-02-28T08:40:09;6.35;;;4.43;;
28180;SDS011;15464;50.988;10.318;2023-02-28T08:42:37;8.77;;;5.03;;
28180;SDS011;15464;50.988;10.318;2023-02-28T08:45:03;8.73;;;5.28;;
28180;SDS011;15464;50.988;10.318;2023-02-28T08:47:30;6.97;;;4.47;;
28180;SDS011;15464;50.988;10.318;2023-02-28T08:49:57;7.65;;;4.43;;
28180;SDS011;15464;50.988;10.318;2023-02-28T08:52:24;7.93;;;4.47;;
28180;SDS011;15464;50.988;10.318;2023-02-28T08:54:51;6.55;;;4.38;;
28180;SDS011;15464;50.988;10.318;2023-02-28T08:57:17;5.53;;;4.60;;
28180;SDS011;15464;50.988;10.318;2023-02-28T08:59:44;9.45;;;5.25;;
28180;SDS011;15464;50.988;10.318;2023-02-28T09:02:12;7.00;;;4.60;;
28180;SDS011;15464;50.988;10.318;2023-02-28T09:07:07;5.72;;;4.65;;
28180;SDS011;15464;50.988;10.318;2023-02-28T09:09:34;6.20;;;4.65;;
28180;SDS011;15464;50.988;10.318;2023-02-28T09:12:01;5.53;;;4.25;;
28180;SDS011;15464;50.988;10.318;2023-02-28T09:14:28;6.90;;;4.43;;
28180;SDS011;15464;50.988;10.318;2023-02-28T09:16:55;5.35;;;4.15;;
28180;SDS011;15464;50.988;10.318;2023-02-28T09:19:21;7.63;;;4.03;;
28180;SDS011;15464;50.988;10.318;2023-02-28T09:21:48;8.98;;;4.10;;
28180;SDS011;15464;50.988;10.318;2023-02-28T09:24:15;6.25;;;4.38;;
28180;SDS011;15464;50.988;10.318;2023-02-28T09:26:41;6.22;;;4.20;;
28180;SDS011;15464;50.988;10.318;2023-02-28T09:29:28;5.65;;;4.35;;
28180;SDS011;15464;50.988;10.318;2023-02-28T09:31:55;7.10;;;4.43;;
28180;SDS011;15464;50.988;10.318;2023-02-28T09:34:25;4.85;;;3.47;;
28180;SDS011;15464;50.988;10.318;2023-02-28T09:36:52;7.88;;;4.32;;
28180;SDS011;15464;50.988;10.318;2023-02-28T09:39:21;7.50;;;4.60;;
28180;SDS011;15464;50.988;10.318;2023-02-28T09:41:50;5.88;;;4.22;;
28180;SDS011;15464;50.988;10.318;2023-02-28T09:44:24;7.68;;;4.50;;
28180;SDS011;15464;50.988;10.318;2023-02-28T09:49:51;6.25;;;4.05;;
28180;SDS011;15464;50.988;10.318;2023-02-28T09:52:19;6.45;;;4.60;;
28180;SDS011;15464;50.988;10.318;2023-02-28T09:54:50;5.32;;;3.90;;
28180;SDS011;15464;50.988;10.318;2023-02-28T09:57:19;5.43;;;4.22;;
28180;SDS011;15464;50.988;10.318;2023-02-28T10:02:56;6.43;;;4.40;;
28180;SDS011;15464;50.988;10.318;2023-02-28T10:05:29;7.95;;;3.90;;
28180;SDS011;15464;50.988;10.318;2023-02-28T10:10:40;6.65;;;4.30;;
28180;SDS011;15464;50.988;10.318;2023-02-28T10:15:42;6.13;;;4.35;;
28180;SDS011;15464;50.988;10.318;2023-02-28T10:18:13;9.02;;;5.57;;
28180;SDS011;15464;50.988;10.318;2023-02-28T10:20:46;5.45;;;4.28;;
28180;SDS011;15464;50.988;10.318;2023-02-28T10:23:48;5.93;;;3.95;;
28180;SDS011;15464;50.988;10.318;2023-02-28T10:26:12;6.32;;;4.40;;
28180;SDS011;15464;50.988;10.318;2023-02-28T10:28:42;6.90;;;4.68;;
28180;SDS011;15464;50.988;10.318;2023-02-28T10:31:14;9.07;;;4.65;;
28180;SDS011;15464;50.988;10.318;2023-02-28T10:33:45;5.38;;;4.32;;
28180;SDS011;15464;50.988;10.318;2023-02-28T10:36:14;6.43;;;4.10;;
28180;SDS011;15464;50.988;10.318;2023-02-28T10:38:46;5.32;;;3.95;;
28180;SDS011;15464;50.988;10.318;2023-02-28T10:41:15;7.13;;;3.95;;
28180;SDS011;15464;50.988;10.318;2023-02-28T10:43:54;8.10;;;4.47;;
28180;SDS011;15464;50.988;10.318;2023-02-28T10:46:40;8.65;;;4.32;;
28180;SDS011;15464;50.988;10.318;2023-02-28T10:49:20;5.13;;;3.57;;
28180;SDS011;15464;50.988;10.318;2023-02-28T10:51:52;7.00;;;4.32;;
28180;SDS011;15464;50.988;10.318;2023-02-28T10:54:24;5.38;;;4.03;;
28180;SDS011;15464;50.988;10.318;2023-02-28T11:00:06;6.45;;;3.97;;
28180;SDS011;15464;50.988;10.318;2023-02-28T11:02:40;5.85;;;3.65;;
28180;SDS011;15464;50.988;10.318;2023-02-28T11:08:05;7.05;;;3.92;;
28180;SDS011;15464;50.988;10.318;2023-02-28T11:10:38;5.63;;;4.15;;
28180;SDS011;15464;50.988;10.318;2023-02-28T11:13:05;6.40;;;3.97;;
28180;SDS011;15464;50.988;10.318;2023-02-28T11:15:33;6.68;;;4.00;;
28180;SDS011;15464;50.988;10.318;2023-02-28T11:20:49;8.63;;;5.25;;
28180;SDS011;15464;50.988;10.318;2023-02-28T11:25:47;6.90;;;4.32;;
28180;SDS011;15464;50.988;10.318;2023-02-28T11:28:30;8.27;;;4.50;;
28180;SDS011;15464;50.988;10.318;2023-02-28T11:31:15;7.25;;;4.35;;
28180;SDS011;15464;50.988;10.318;2023-02-28T11:33:50;8.18;;;4.45;;
28180;SDS011;15464;50.988;10.318;2023-02-28T11:36:26;5.72;;;4.03;;
28180;SDS011;15464;50.988;10.318;2023-02-28T11:39:00;8.50;;;4.57;;
28180;SDS011;15464;50.988;10.318;2023-02-28T11:45:11;6.07;;;4.40;;
28180;SDS011;15464;50.988;10.318;2023-02-28T11:48:01;6.32;;;4.05;;
28180;SDS011;15464;50.988;10.318;2023-02-28T11:53:10;7.10;;;4.40;;
28180;SDS011;15464;50.988;10.318;2023-02-28T11:55:46;6.00;;;4.88;;
28180;SDS011;15464;50.988;10.318;2023-02-28T11:58:33;7.03;;;4.72;;
28180;SDS011;15464;50.988;10.318;2023-02-28T12:06:36;7.50;;;4.70;;
28180;SDS011;15464;50.988;10.318;2023-02-28T12:09:20;5.97;;;4.25;;
28180;SDS011;15464;50.988;10.318;2023-02-28T12:16:06;6.20;;;4.55;;
28180;SDS011;15464;50.988;10.318;2023-02-28T12:28:59;6.00;;;4.90;;
28180;SDS011;15464;50.988;10.318;2023-02-28T12:31:38;6.03;;;5.18;;
28180;SDS011;15464;50.988;10.318;2023-02-28T12:34:16;6.30;;;5.15;;
28180;SDS011;15464;50.988;10.318;2023-02-28T12:36:47;7.43;;;5.30;;
28180;SDS011;15464;50.988;10.318;2023-02-28T12:39:31;7.63;;;5.40;;
28180;SDS011;15464;50.988;10.318;2023-02-28T12:44:56;5.78;;;4.80;;
28180;SDS011;15464;50.988;10.318;2023-02-28T12:47:24;7.95;;;5.30;;
28180;SDS011;15464;50.988;10.318;2023-02-28T12:50:04;6.28;;;5.05;;
28180;SDS011;15464;50.988;10.318;2023-02-28T12:52:41;8.68;;;4.88;;
28180;SDS011;15464;50.988;10.318;2023-02-28T12:58:36;7.47;;;4.88;;
28180;SDS011;15464;50.988;10.318;2023-02-28T13:09:26;6.95;;;4.78;;
28180;SDS011;15464;50.988;10.318;2023-02-28T13:11:55;5.82;;;4.40;;
28180;SDS011;15464;50.988;10.318;2023-02-28T13:14:35;5.43;;;4.50;;
28180;SDS011;15464;50.988;10.318;2023-02-28T13:17:10;7.75;;;4.97;;
28180;SDS011;15464;50.988;10.318;2023-02-28T13:19:46;7.28;;;5.25;;
28180;SDS011;15464;50.988;10.318;2023-02-28T13:22:46;6.95;;;5.18;;
28180;SDS011;15464;50.988;10.318;2023-02-28T13:27:56;6.45;;;4.78;;
28180;SDS011;15464;50.988;10.318;2023-02-28T13:33:32;6.70;;;4.45;;
28180;SDS011;15464;50.988;10.318;2023-02-28T14:00:08;6.68;;;5.45;;
28180;SDS011;15464;50.988;10.318;2023-02-28T14:05:25;6.50;;;5.70;;
28180;SDS011;15464;50.988;10.318;2023-02-28T14:07:53;5.53;;;4.97;;
28180;SDS011;15464;50.988;10.318;2023-02-28T14:10:27;9.18;;;5.60;;
28180;SDS011;15464;50.988;10.318;2023-02-28T14:12:58;7.35;;;5.25;;
28180;SDS011;15464;50.988;10.318;2023-02-28T14:18:16;8.75;;;6.07;;
28180;SDS011;15464;50.988;10.318;2023-02-28T14:20:44;11.18;;;6.45;;
28180;SDS011;15464;50.988;10.318;2023-02-28T14:36:33;6.78;;;5.18;;
28180;SDS011;15464;50.988;10.318;2023-02-28T14:39:13;9.07;;;5.40;;
28180;SDS011;15464;50.988;10.318;2023-02-28T14:41:43;9.63;;;5.78;;
28180;SDS011;15464;50.988;10.318;2023-02-28T14:46:43;6.68;;;5.70;;
28180;SDS011;15464;50.988;10.318;2023-02-28T14:52:03;11.40;;;5.60;;
28180;SDS011;15464;50.988;10.318;2023-02-28T14:54:39;9.85;;;6.22;;
28180;SDS011;15464;50.988;10.318;2023-02-28T14:57:06;8.02;;;6.43;;
28180;SDS011;15464;50.988;10.318;2023-02-28T14:59:57;10.85;;;5.88;;
28180;SDS011;15464;50.988;10.318;2023-02-28T15:02:38;7.70;;;5.75;;
28180;SDS011;15464;50.988;10.318;2023-02-28T15:07:38;10.07;;;6.32;;
28180;SDS011;15464;50.988;10.318;2023-02-28T15:10:18;7.57;;;6.15;;
28180;SDS011;15464;50.988;10.318;2023-02-28T15:12:47;10.25;;;6.38;;
28180;SDS011;15464;50.988;10.318;2023-02-28T15:15:19;8.82;;;6.03;;
28180;SDS011;15464;50.988;10.318;2023-02-28T15:18:01;6.70;;;6.00;;
28180;SDS011;15464;50.988;10.318;2023-02-28T15:20:32;9.48;;;6.20;;
28180;SDS011;15464;50.988;10.318;2023-02-28T15:22:59;7.72;;;5.90;;
28180;SDS011;15464;50.988;10.318;2023-02-28T15:25:26;9.32;;;5.72;;
28180;SDS011;15464;50.988;10.318;2023-02-28T15:27:54;8.07;;;6.10;;
28180;SDS011;15464;50.988;10.318;2023-02-28T15:30:30;8.90;;;6.63;;
28180;SDS011;15464;50.988;10.318;2023-02-28T15:33:03;10.00;;;6.15;;
28180;SDS011;15464;50.988;10.318;2023-02-28T15:35:39;8.73;;;7.15;;
28180;SDS011;15464;50.988;10.318;2023-02-28T15:40:53;8.68;;;6.68;;
28180;SDS011;15464;50.988;10.318;2023-02-28T15:43:25;11.48;;;7.47;;
28180;SDS011;15464;50.988;10.318;2023-02-28T15:48:25;10.57;;;7.93;;
28180;SDS011;15464;50.988;10.318;2023-02-28T15:50:56;10.48;;;7.18;;
28180;SDS011;15464;50.988;10.318;2023-02-28T15:53:30;10.20;;;6.47;;
28180;SDS011;15464;50.988;10.318;2023-02-28T15:56:03;7.95;;;6.72;;
28180;SDS011;15464;50.988;10.318;2023-02-28T15:58:33;11.48;;;7.80;;
28180;SDS011;15464;50.988;10.318;2023-02-28T16:01:06;10.85;;;7.38;;
28180;SDS011;15464;50.988;10.318;2023-02-28T16:03:48;10.70;;;7.13;;
28180;SDS011;15464;50.988;10.318;2023-02-28T16:06:30;8.70;;;6.82;;
28180;SDS011;15464;50.988;10.318;2023-02-28T16:08:59;12.98;;;8.68;;
28180;SDS011;15464;50.988;10.318;2023-02-28T16:11:26;8.85;;;7.80;;
28180;SDS011;15464;50.988;10.318;2023-02-28T16:13:54;11.55;;;8.10;;
28180;SDS011;15464;50.988;10.318;2023-02-28T16:16:22;9.70;;;7.15;;
28180;SDS011;15464;50.988;10.318;2023-02-28T16:18:50;9.82;;;7.93;;
28180;SDS011;15464;50.988;10.318;2023-02-28T16:21:18;12.52;;;7.47;;
28180;SDS011;15464;50.988;10.318;2023-02-28T16:23:44;9.77;;;7.68;;
28180;SDS011;15464;50.988;10.318;2023-02-28T16:26:23;10.18;;;7.40;;
28180;SDS011;15464;50.988;10.318;2023-02-28T16:28:52;10.35;;;7.70;;
28180;SDS011;15464;50.988;10.318;2023-02-28T16:31:20;9.38;;;7.60;;
28180;SDS011;15464;50.988;10.318;2023-02-28T16:33:47;11.90;;;8.13;;
28180;SDS011;15464;50.988;10.318;2023-02-28T16:36:15;10.63;;;7.70;;
28180;SDS011;15464;50.988;10.318;2023-02-28T16:38:46;10.65;;;7.97;;
28180;SDS011;15464;50.988;10.318;2023-02-28T16:41:14;10.45;;;8.15;;
28180;SDS011;15464;50.988;10.318;2023-02-28T16:43:49;11.63;;;7.88;;
28180;SDS011;15464;50.988;10.318;2023-02-28T16:46:17;11.00;;;7.50;;
28180;SDS011;15464;50.988;10.318;2023-02-28T16:48:45;11.05;;;8.05;;
28180;SDS011;15464;50.988;10.318;2023-02-28T16:51:13;9.70;;;7.82;;
28180;SDS011;15464;50.988;10.318;2023-02-28T16:53:42;11.68;;;7.78;;
28180;SDS011;15464;50.988;10.318;2023-02-28T16:56:14;12.30;;;8.20;;
28180;SDS011;15464;50.988;10.318;2023-02-28T16:58:49;9.93;;;8.10;;
28180;SDS011;15464;50.988;10.318;2023-02-28T17:01:17;11.52;;;8.43;;
28180;SDS011;15464;50.988;10.318;2023-02-28T17:03:48;10.13;;;8.43;;
28180;SDS011;15464;50.988;10.318;2023-02-28T17:06:17;10.55;;;8.32;;
28180;SDS011;15464;50.988;10.318;2023-02-28T17:08:49;10.10;;;8.07;;
28180;SDS011;15464;50.988;10.318;2023-02-28T17:11:17;10.30;;;8.55;;
28180;SDS011;15464;50.988;10.318;2023-02-28T17:13:45;10.32;;;7.85;;
28180;SDS011;15464;50.988;10.318;2023-02-28T17:16:16;11.52;;;8.90;;
28180;SDS011;15464;50.988;10.318;2023-02-28T17:18:47;14.02;;;10.02;;
28180;SDS011;15464;50.988;10.318;2023-02-28T17:21:15;13.07;;;9.25;;
28180;SDS011;15464;50.988;10.318;2023-02-28T17:23:42;12.48;;;8.68;;
28180;SDS011;15464;50.988;10.318;2023-02-28T17:26:13;13.95;;;9.57;;
28180;SDS011;15464;50.988;10.318;2023-02-28T17:28:51;15.15;;;10.35;;
28180;SDS011;15464;50.988;10.318;2023-02-28T17:31:21;14.93;;;10.02;;
28180;SDS011;15464;50.988;10.318;2023-02-28T17:33:49;12.53;;;8.90;;
28180;SDS011;15464;50.988;10.318;2023-02-28T17:36:18;11.75;;;9.30;;
28180;SDS011;15464;50.988;10.318;2023-02-28T17:38:48;13.35;;;9.43;;
28180;SDS011;15464;50.988;10.318;2023-02-28T17:41:15;13.15;;;9.63;;
28180;SDS011;15464;50.988;10.318;2023-02-28T17:43:42;12.18;;;8.80;;
28180;SDS011;15464;50.988;10.318;2023-02-28T17:46:19;14.95;;;10.18;;
28180;SDS011;15464;50.988;10.318;2023-02-28T17:48:52;12.68;;;8.77;;
28180;SDS011;15464;50.988;10.318;2023-02-28T17:51:20;13.77;;;9.50;;